Time;durP1;ratioP1;P1;durP2;ratioP2;P2;SDS_P1;SDS_P2;PMS_P1;PMS_P2;Temp;Humidity;BMP_temperature;BMP_pressure;BME280_temperature;BME280_humidity;BME280_pressure;Samples;Min_cycle;Max_cycle;Signal;HPM_P1;HPM_P2
2022/09/29 00:01:26;;;;;;;2.97;0.75;;;12.50;99.90;;;;;;5056733;28;20059;-83
2022/09/29 00:03:51;;;;;;;2.15;0.95;;;12.50;99.90;;;;;;5049494;28;20017;-83
2022/09/29 00:06:18;;;;;;;1.17;0.80;;;12.40;99.90;;;;;;5051983;28;20037;-84
2022/09/29 00:08:44;;;;;;;1.52;0.70;;;12.40;99.90;;;;;;5045051;28;20048;-84
2022/09/29 00:11:16;;;;;;;2.78;0.70;;;12.40;99.90;;;;;;5047441;28;20018;-84
2022/09/29 00:13:43;;;;;;;1.30;0.80;;;12.40;99.90;;;;;;5042741;28;20033;-83
2022/09/29 00:16:09;;;;;;;2.38;0.80;;;12.40;99.90;;;;;;5049892;28;20025;-84
2022/09/29 00:18:35;;;;;;;1.30;0.70;;;12.30;99.90;;;;;;5055517;28;20045;-83
2022/09/29 00:21:07;;;;;;;0.80;0.70;;;12.30;99.90;;;;;;5050945;28;20022;-84
2022/09/29 00:23:34;;;;;;;1.30;0.93;;;12.30;99.90;;;;;;5046669;28;20033;-83
2022/09/29 00:26:03;;;;;;;2.72;0.70;;;12.30;99.90;;;;;;5044322;28;20077;-83
2022/09/29 00:28:29;;;;;;;2.40;0.88;;;12.30;99.90;;;;;;5060399;28;20052;-83
2022/09/29 00:30:58;;;;;;;1.20;0.85;;;12.30;99.90;;;;;;5018102;28;20045;-83
2022/09/29 00:33:24;;;;;;;1.77;0.90;;;12.20;99.90;;;;;;5032725;28;20033;-84
2022/09/29 00:35:57;;;;;;;1.45;0.80;;;12.20;99.90;;;;;;5048144;28;20033;-85
2022/09/29 00:38:24;;;;;;;0.68;0.65;;;12.20;99.90;;;;;;5054710;28;20046;-82
2022/09/29 00:40:49;;;;;;;1.40;0.70;;;12.20;99.90;;;;;;5047984;28;20021;-82
2022/09/29 00:43:40;;;;;;;1.17;0.80;;;12.20;99.90;;;;;;5052080;28;20013;-83
2022/09/29 00:46:06;;;;;;;5.72;0.90;;;12.20;99.90;;;;;;5016165;28;20041;-83
2022/09/29 00:48:32;;;;;;;1.45;0.77;;;12.20;99.90;;;;;;5029544;28;20021;-80
2022/09/29 00:50:58;;;;;;;0.60;0.60;;;12.20;99.90;;;;;;5036274;28;20057;-83
2022/09/29 00:53:25;;;;;;;1.75;0.70;;;12.20;99.90;;;;;;5025149;28;20017;-82
2022/09/29 00:56:03;;;;;;;1.73;0.82;;;12.20;99.90;;;;;;5049949;28;20096;-84
2022/09/29 00:58:35;;;;;;;2.28;0.77;;;12.20;99.90;;;;;;5059058;28;20029;-84
2022/09/29 01:01:01;;;;;;;3.80;1.20;;;12.10;99.90;;;;;;5044341;28;20018;-82
2022/09/29 01:03:34;;;;;;;4.72;1.25;;;12.10;99.90;;;;;;5028484;28;20057;-83
2022/09/29 01:06:05;;;;;;;2.80;0.90;;;12.00;99.90;;;;;;5033970;28;20018;-83
2022/09/29 01:08:52;;;;;;;3.33;0.80;;;12.00;99.90;;;;;;5036312;28;20046;-83
2022/09/29 01:11:20;;;;;;;0.95;0.70;;;11.90;99.90;;;;;;5035403;28;20045;-83
2022/09/29 01:13:47;;;;;;;3.83;0.90;;;11.90;99.90;;;;;;5036844;28;20474;-83
2022/09/29 01:16:13;;;;;;;1.25;0.70;;;11.80;99.90;;;;;;5048207;28;20036;-82
2022/09/29 01:18:39;;;;;;;3.33;1.08;;;11.80;99.90;;;;;;5041514;28;20025;-83
2022/09/29 01:21:24;;;;;;;1.23;0.80;;;11.80;99.90;;;;;;5062508;22;20026;-84
2022/09/29 01:24:13;;;;;;;2.00;1.02;;;11.80;99.90;;;;;;5038482;28;20030;-84
2022/09/29 01:26:58;;;;;;;1.88;0.75;;;11.80;99.90;;;;;;5054411;28;20102;-85
2022/09/29 01:29:47;;;;;;;2.92;0.85;;;11.80;99.90;;;;;;5029349;28;20057;-82
2022/09/29 01:32:19;;;;;;;3.65;0.93;;;11.90;99.90;;;;;;5025680;28;20042;-86
2022/09/29 01:34:55;;;;;;;1.55;0.90;;;11.90;99.90;;;;;;5029401;28;20034;-87
2022/09/29 01:37:43;;;;;;;2.55;1.08;;;11.90;99.90;;;;;;5045062;28;20021;-88
2022/09/29 01:40:12;;;;;;;1.25;0.95;;;11.90;99.90;;;;;;5059266;28;20037;-88
2022/09/29 01:42:53;;;;;;;1.95;1.00;;;11.90;99.90;;;;;;5055485;28;20022;-87
2022/09/29 01:45:35;;;;;;;2.05;1.00;;;11.90;99.90;;;;;;5026734;28;20030;-88
2022/09/29 01:48:10;;;;;;;4.85;0.88;;;11.90;99.90;;;;;;5038673;28;20030;-88
2022/09/29 01:50:45;;;;;;;1.88;0.90;;;11.90;99.90;;;;;;5038561;28;20029;-86
2022/09/29 01:53:17;;;;;;;2.70;1.00;;;11.90;99.90;;;;;;5029921;28;20034;-86
2022/09/29 01:55:58;;;;;;;2.85;1.08;;;11.90;99.90;;;;;;5052480;28;20125;-86
2022/09/29 01:58:42;;;;;;;2.13;1.00;;;11.90;99.90;;;;;;5037473;28;20099;-88
2022/09/29 02:01:13;;;;;;;1.80;1.10;;;11.90;99.90;;;;;;5052489;28;20033;-88
2022/09/29 02:04:14;;;;;;;3.47;1.15;;;11.90;99.90;;;;;;5047163;28;20033;-87
2022/09/29 02:06:51;;;;;;;1.85;1.25;;;11.90;99.90;;;;;;4986929;28;20045;-87
2022/09/29 02:09:24;;;;;;;1.80;1.40;;;11.80;99.90;;;;;;5036469;28;20057;-87
2022/09/29 02:11:52;;;;;;;3.42;1.50;;;11.80;99.90;;;;;;5038334;28;20072;-87
2022/09/29 02:14:23;;;;;;;2.83;1.52;;;11.80;99.90;;;;;;5053989;28;20013;-86
2022/09/29 02:17:02;;;;;;;2.20;1.30;;;11.80;99.90;;;;;;5056613;28;20037;-88
2022/09/29 02:19:33;;;;;;;2.17;1.20;;;11.80;99.90;;;;;;5054942;28;20071;-87
2022/09/29 02:21:59;;;;;;;4.00;1.45;;;11.80;99.90;;;;;;5039429;28;20137;-88
2022/09/29 02:24:25;;;;;;;1.70;1.27;;;11.80;99.90;;;;;;5045412;28;20014;-86
2022/09/29 02:26:51;;;;;;;4.07;1.58;;;11.80;99.90;;;;;;5056874;28;20037;-88
2022/09/29 02:29:18;;;;;;;2.90;1.67;;;11.70;99.90;;;;;;5054178;28;20436;-88
2022/09/29 02:31:46;;;;;;;3.10;1.80;;;11.70;99.90;;;;;;5034411;28;20104;-87
2022/09/29 02:34:16;;;;;;;1.83;1.50;;;11.70;99.90;;;;;;5044613;28;20041;-86
2022/09/29 02:36:52;;;;;;;1.50;1.27;;;11.70;99.90;;;;;;5044025;28;20025;-88
2022/09/29 02:39:34;;;;;;;1.98;1.63;;;11.80;99.90;;;;;;5044300;28;20021;-87
2022/09/29 02:42:06;;;;;;;2.80;1.60;;;11.80;99.90;;;;;;5044648;28;20040;-87
2022/09/29 02:45:08;;;;;;;3.38;1.60;;;11.70;99.90;;;;;;5052467;28;20016;-88
2022/09/29 02:48:01;;;;;;;4.22;1.50;;;11.80;99.90;;;;;;5051131;28;20093;-88
2022/09/29 02:51:14;;;;;;;2.58;1.40;;;11.80;99.90;;;;;;5030144;28;20030;-88
2022/09/29 02:54:17;;;;;;;1.95;1.25;;;11.80;99.90;;;;;;4967785;28;20035;-88
2022/09/29 02:57:13;;;;;;;1.42;1.15;;;11.80;99.90;;;;;;5041399;28;20072;-85
2022/09/29 02:59:50;;;;;;;2.83;1.60;;;11.80;99.90;;;;;;5048956;28;20068;-87
2022/09/29 03:02:23;;;;;;;2.88;1.30;;;11.80;99.90;;;;;;5049845;28;20022;-85
2022/09/29 03:04:49;;;;;;;2.60;1.35;;;11.70;99.90;;;;;;5033436;28;20179;-85
2022/09/29 03:07:15;;;;;;;1.63;1.50;;;11.80;99.90;;;;;;5042614;28;20025;-86
2022/09/29 03:09:40;;;;;;;2.00;1.40;;;11.70;99.90;;;;;;5034145;28;20060;-85
2022/09/29 03:12:06;;;;;;;3.90;1.25;;;11.70;99.90;;;;;;5048210;28;20028;-83
2022/09/29 03:14:32;;;;;;;2.30;1.35;;;11.70;99.90;;;;;;5039337;28;20037;-83
2022/09/29 03:16:58;;;;;;;3.17;1.50;;;11.60;99.90;;;;;;5050266;28;20022;-84
2022/09/29 03:19:23;;;;;;;2.33;1.50;;;11.60;99.90;;;;;;5049446;28;20049;-86
2022/09/29 03:21:49;;;;;;;2.95;1.30;;;11.60;99.90;;;;;;5037333;28;20033;-87
2022/09/29 03:24:15;;;;;;;2.78;1.70;;;11.60;99.90;;;;;;5038804;28;20033;-84
2022/09/29 03:26:41;;;;;;;5.43;1.60;;;11.60;99.90;;;;;;5051324;28;20032;-85
2022/09/29 03:29:07;;;;;;;4.80;1.48;;;11.60;99.90;;;;;;5049504;28;20030;-84
2022/09/29 03:31:33;;;;;;;6.53;1.55;;;11.50;99.90;;;;;;5040187;28;20017;-85
2022/09/29 03:33:58;;;;;;;2.72;1.60;;;11.50;99.90;;;;;;5038650;28;20021;-85
2022/09/29 03:36:24;;;;;;;3.35;1.80;;;11.50;99.90;;;;;;5047924;28;20021;-86
2022/09/29 03:38:50;;;;;;;3.78;2.17;;;11.50;99.90;;;;;;5045673;28;20056;-86
2022/09/29 03:41:16;;;;;;;6.60;2.20;;;11.50;99.90;;;;;;5037651;28;20374;-87
2022/09/29 03:43:42;;;;;;;3.15;2.35;;;11.50;99.90;;;;;;5037818;28;20041;-87
2022/09/29 03:46:07;;;;;;;8.40;2.83;;;11.50;99.90;;;;;;5049041;28;20026;-85
2022/09/29 03:48:34;;;;;;;7.25;2.97;;;11.50;99.90;;;;;;5045725;28;20052;-84
2022/09/29 03:51:00;;;;;;;4.43;3.10;;;11.40;99.90;;;;;;5035466;28;20034;-85
2022/09/29 03:53:26;;;;;;;6.53;3.33;;;11.40;99.90;;;;;;5042326;28;20034;-86
2022/09/29 03:55:52;;;;;;;4.68;3.22;;;11.40;99.90;;;;;;5050715;28;20029;-88
2022/09/29 03:58:18;;;;;;;5.65;3.85;;;11.40;99.90;;;;;;5050023;28;20062;-87
2022/09/29 04:00:46;;;;;;;8.38;3.80;;;11.40;99.90;;;;;;5040905;28;20084;-84
2022/09/29 04:03:12;;;;;;;7.38;4.63;;;11.40;99.90;;;;;;5048709;28;20030;-85
2022/09/29 04:05:39;;;;;;;6.00;4.13;;;11.40;99.90;;;;;;5049936;28;20025;-85
2022/09/29 04:08:06;;;;;;;6.75;4.22;;;11.30;99.90;;;;;;5032002;28;20053;-85
2022/09/29 04:10:36;;;;;;;6.13;4.00;;;11.30;99.90;;;;;;5045678;28;20037;-84
2022/09/29 04:13:02;;;;;;;5.50;4.13;;;11.30;99.90;;;;;;5044644;28;20021;-84
2022/09/29 04:15:28;;;;;;;5.97;4.25;;;11.30;99.90;;;;;;5048768;28;20057;-84
2022/09/29 04:17:54;;;;;;;5.88;3.80;;;11.40;99.90;;;;;;5058577;28;20021;-83
2022/09/29 04:20:20;;;;;;;7.20;4.10;;;11.30;99.90;;;;;;5051172;28;20029;-83
2022/09/29 04:22:46;;;;;;;8.18;4.18;;;11.30;99.90;;;;;;5058229;28;20052;-84
2022/09/29 04:25:11;;;;;;;7.32;4.35;;;11.40;99.90;;;;;;5039986;28;20029;-83
2022/09/29 04:27:37;;;;;;;4.72;3.80;;;11.30;99.90;;;;;;5039986;28;20048;-83
2022/09/29 04:30:04;;;;;;;7.10;3.90;;;11.30;99.90;;;;;;5034958;28;20083;-83
2022/09/29 04:32:30;;;;;;;5.10;3.78;;;11.20;99.90;;;;;;5035153;28;20024;-83
2022/09/29 04:34:56;;;;;;;4.18;3.58;;;11.20;99.90;;;;;;5042428;28;20089;-83
2022/09/29 04:37:23;;;;;;;8.13;3.85;;;11.20;99.90;;;;;;5040950;28;20010;-83
2022/09/29 04:39:48;;;;;;;6.43;3.47;;;11.20;99.90;;;;;;5050081;28;20026;-84
2022/09/29 04:42:14;;;;;;;7.47;3.85;;;11.30;99.90;;;;;;5060425;28;20041;-84
2022/09/29 04:44:40;;;;;;;7.07;3.58;;;11.20;99.90;;;;;;5047952;28;20059;-83
2022/09/29 04:47:06;;;;;;;6.25;4.05;;;11.20;99.90;;;;;;5039685;28;20077;-83
2022/09/29 04:49:31;;;;;;;7.28;3.35;;;11.20;99.90;;;;;;5034220;28;20018;-85
2022/09/29 04:51:57;;;;;;;7.47;4.53;;;11.20;99.90;;;;;;5042953;28;20026;-86
2022/09/29 04:54:23;;;;;;;6.15;4.15;;;11.10;99.90;;;;;;5054485;28;20048;-84
2022/09/29 04:56:49;;;;;;;5.70;3.78;;;11.20;99.90;;;;;;5059837;28;20041;-84
2022/09/29 04:59:16;;;;;;;6.30;3.83;;;11.20;99.90;;;;;;5059762;28;20021;-86
2022/09/29 05:01:42;;;;;;;5.07;3.55;;;11.30;99.90;;;;;;5054421;28;20042;-89
2022/09/29 05:04:09;;;;;;;6.60;4.18;;;11.30;99.90;;;;;;5032028;28;20030;-86
2022/09/29 05:06:39;;;;;;;6.25;3.92;;;11.30;99.90;;;;;;5015074;28;20041;-86
2022/09/29 05:09:05;;;;;;;6.05;3.95;;;11.30;99.90;;;;;;5016611;28;20037;-88
2022/09/29 05:11:31;;;;;;;21.02;4.88;;;11.30;99.90;;;;;;5037356;28;20049;-88
2022/09/29 05:13:57;;;;;;;8.95;3.60;;;11.30;99.90;;;;;;5039304;28;20022;-88
2022/09/29 05:16:24;;;;;;;5.10;3.05;;;11.30;99.90;;;;;;5038511;28;20076;-88
2022/09/29 05:18:50;;;;;;;7.45;3.45;;;11.30;99.90;;;;;;5037078;28;20045;-88
2022/09/29 05:21:16;;;;;;;5.75;2.70;;;11.30;99.90;;;;;;5020253;28;20535;-87
2022/09/29 05:23:42;;;;;;;5.60;3.08;;;11.40;99.90;;;;;;5028657;28;20034;-87
2022/09/29 05:26:10;;;;;;;6.90;3.22;;;11.50;99.90;;;;;;5041418;28;20029;-88
2022/09/29 05:28:43;;;;;;;3.95;2.75;;;11.50;99.90;;;;;;5032296;28;20018;-87
2022/09/29 05:31:09;;;;;;;7.63;2.80;;;11.50;99.90;;;;;;5017723;28;20042;-87
2022/09/29 05:33:36;;;;;;;9.00;3.13;;;11.60;99.90;;;;;;5018227;28;20062;-87
2022/09/29 05:36:09;;;;;;;4.53;2.70;;;11.60;99.90;;;;;;5005547;28;20022;-90
2022/09/29 05:38:36;;;;;;;10.52;3.03;;;11.60;99.90;;;;;;5041310;28;20026;-90
2022/09/29 05:41:07;;;;;;;6.28;3.17;;;11.60;99.90;;;;;;5023519;28;20026;-91
2022/09/29 05:43:33;;;;;;;6.07;2.78;;;11.70;99.90;;;;;;5039277;28;20101;-88
2022/09/29 05:46:04;;;;;;;6.20;4.05;;;11.70;99.90;;;;;;5028166;28;20021;-88
2022/09/29 05:48:30;;;;;;;5.88;3.17;;;11.70;99.90;;;;;;5044899;28;20105;-87
2022/09/29 05:50:57;;;;;;;14.70;3.05;;;11.70;99.90;;;;;;5040291;28;20029;-86
2022/09/29 05:53:23;;;;;;;12.88;3.35;;;11.80;99.90;;;;;;5053690;28;20441;-85
2022/09/29 05:55:50;;;;;;;6.88;2.97;;;11.80;99.90;;;;;;5053294;28;20030;-83
2022/09/29 05:58:16;;;;;;;6.40;2.70;;;11.80;99.90;;;;;;5055867;28;20052;-87
2022/09/29 06:00:42;;;;;;;5.90;2.97;;;11.80;99.90;;;;;;5054185;28;20036;-87
2022/09/29 06:03:08;;;;;;;6.45;3.08;;;11.80;99.90;;;;;;5035306;28;20025;-84
2022/09/29 06:05:38;;;;;;;4.18;2.53;;;11.80;99.90;;;;;;5034251;28;20030;-84
2022/09/29 06:08:04;;;;;;;4.88;2.80;;;11.90;99.90;;;;;;5026245;28;20021;-85
2022/09/29 06:10:31;;;;;;;3.65;2.55;;;11.90;99.90;;;;;;5025922;28;20033;-85
2022/09/29 06:12:57;;;;;;;6.15;2.90;;;11.90;99.90;;;;;;5030088;28;20082;-84
2022/09/29 06:15:23;;;;;;;5.05;3.20;;;12.00;99.90;;;;;;5038506;28;20044;-83
2022/09/29 06:17:58;;;;;;;6.38;2.13;;;12.00;99.90;;;;;;5032957;28;20035;-82
2022/09/29 06:20:24;;;;;;;5.15;2.42;;;12.00;99.90;;;;;;5018846;28;20022;-82
2022/09/29 06:22:55;;;;;;;4.10;2.22;;;12.00;99.90;;;;;;5001583;28;20034;-82
2022/09/29 06:25:22;;;;;;;6.15;2.35;;;11.90;99.90;;;;;;5018604;28;20026;-81
2022/09/29 06:27:48;;;;;;;3.97;2.50;;;11.90;99.90;;;;;;5021301;28;20018;-81
2022/09/29 06:30:14;;;;;;;3.47;1.90;;;11.80;99.90;;;;;;5027112;28;20072;-81
2022/09/29 06:32:40;;;;;;;5.35;2.10;;;11.80;99.90;;;;;;5031131;28;20045;-82
2022/09/29 06:37:55;;;;;;;6.32;2.35;;;11.80;99.90;;;;;;5030348;28;20018;-82
2022/09/29 06:40:22;;;;;;;8.07;2.40;;;11.80;99.90;;;;;;5017803;28;20037;-83
2022/09/29 06:42:48;;;;;;;3.30;1.80;;;11.90;99.90;;;;;;5028019;28;20033;-83
2022/09/29 06:45:14;;;;;;;3.00;1.98;;;12.00;99.90;;;;;;5019003;28;20045;-83
2022/09/29 06:47:41;;;;;;;4.38;1.80;;;12.00;99.90;;;;;;5001045;28;20029;-82
2022/09/29 06:50:08;;;;;;;2.78;2.13;;;12.10;99.90;;;;;;5017366;28;20006;-83
2022/09/29 06:52:34;;;;;;;4.07;2.03;;;12.10;99.90;;;;;;5014635;28;20034;-83
2022/09/29 06:55:00;;;;;;;2.92;2.50;;;12.20;99.90;;;;;;5009810;28;20026;-86
2022/09/29 06:57:26;;;;;;;12.23;2.22;;;12.20;99.90;;;;;;5004145;28;20025;-84
2022/09/29 06:59:52;;;;;;;3.35;2.15;;;12.40;99.90;;;;;;5004186;28;20030;-88
2022/09/29 07:02:18;;;;;;;3.30;1.98;;;12.50;99.90;;;;;;5006551;28;20026;-85
2022/09/29 07:04:43;;;;;;;2.97;1.33;;;12.60;99.90;;;;;;5013233;28;20032;-87
2022/09/29 07:07:09;;;;;;;4.18;2.10;;;12.70;99.90;;;;;;5018281;28;20083;-84
2022/09/29 07:09:35;;;;;;;2.60;1.70;;;12.80;99.90;;;;;;5027555;28;20033;-83
2022/09/29 07:12:01;;;;;;;2.10;1.65;;;12.90;99.90;;;;;;5041309;28;20036;-85
2022/09/29 07:14:27;;;;;;;5.13;1.95;;;13.00;99.90;;;;;;5025785;28;20030;-86
2022/09/29 07:16:53;;;;;;;3.63;1.95;;;13.00;99.90;;;;;;5026326;28;20262;-86
2022/09/29 07:19:19;;;;;;;2.80;2.15;;;13.20;99.90;;;;;;5025205;28;20041;-85
2022/09/29 07:21:46;;;;;;;9.52;3.20;;;13.20;99.90;;;;;;5043736;22;20067;-79
2022/09/29 07:24:11;;;;;;;7.35;2.40;;;13.20;99.90;;;;;;5018864;28;20395;-79
2022/09/29 07:26:37;;;;;;;3.05;1.70;;;13.40;99.90;;;;;;5027919;28;20039;-80
2022/09/29 07:29:03;;;;;;;5.32;1.73;;;13.70;99.90;;;;;;5035047;28;20065;-78
2022/09/29 07:31:29;;;;;;;3.10;1.13;;;13.80;99.90;;;;;;5035469;28;20033;-80
2022/09/29 07:33:55;;;;;;;5.18;1.60;;;13.90;99.90;;;;;;5037230;28;20686;-80
2022/09/29 07:36:21;;;;;;;2.63;1.50;;;13.90;99.90;;;;;;5037062;28;20030;-79
2022/09/29 07:38:49;;;;;;;2.97;1.48;;;14.00;99.90;;;;;;5036400;28;20026;-80
2022/09/29 07:41:17;;;;;;;4.70;1.70;;;14.00;99.90;;;;;;5040295;28;20393;-78
2022/09/29 07:43:42;;;;;;;4.47;1.75;;;14.10;99.90;;;;;;5037019;28;20041;-78
2022/09/29 07:46:08;;;;;;;2.75;1.30;;;14.10;99.90;;;;;;5027154;28;20482;-77
2022/09/29 07:48:36;;;;;;;1.75;1.40;;;14.10;99.90;;;;;;5027639;28;20030;-78
2022/09/29 07:51:14;;;;;;;5.75;1.65;;;14.00;99.90;;;;;;5028708;28;20095;-78
2022/09/29 07:53:40;;;;;;;4.40;1.70;;;14.10;99.90;;;;;;5036094;28;20037;-78
2022/09/29 07:56:33;;;;;;;3.40;1.52;;;14.30;99.90;;;;;;5039453;28;20030;-77
2022/09/29 07:59:01;;;;;;;2.53;1.50;;;14.50;99.90;;;;;;5029814;28;20065;-78
2022/09/29 08:01:27;;;;;;;2.38;1.55;;;14.90;99.90;;;;;;5037195;28;20021;-80
2022/09/29 08:03:54;;;;;;;3.35;1.55;;;15.00;99.90;;;;;;5018608;28;20079;-80
2022/09/29 08:06:21;;;;;;;3.50;1.38;;;15.20;99.90;;;;;;5020592;28;20041;-78
2022/09/29 08:08:47;;;;;;;2.45;1.30;;;15.20;99.90;;;;;;5026979;28;20021;-81
2022/09/29 08:11:16;;;;;;;1.75;1.30;;;15.30;99.90;;;;;;5024552;28;20363;-80
2022/09/29 08:13:42;;;;;;;4.38;1.50;;;15.30;99.90;;;;;;5023867;28;20044;-78
2022/09/29 08:16:11;;;;;;;3.78;1.60;;;15.30;99.90;;;;;;5030389;28;20022;-80
2022/09/29 08:18:40;;;;;;;2.28;1.30;;;15.30;99.90;;;;;;5031082;28;20081;-79
2022/09/29 08:21:06;;;;;;;2.45;2.03;;;15.30;99.90;;;;;;5031202;28;20030;-78
2022/09/29 08:23:38;;;;;;;5.00;1.50;;;15.40;99.90;;;;;;5021269;28;20644;-78
2022/09/29 08:26:07;;;;;;;4.35;1.70;;;15.30;99.90;;;;;;5032576;28;20089;-79
2022/09/29 08:28:35;;;;;;;3.88;1.42;;;15.50;99.90;;;;;;5026269;28;20086;-79
2022/09/29 08:31:09;;;;;;;2.05;1.27;;;15.80;99.90;;;;;;5024629;28;20037;-79
2022/09/29 08:33:36;;;;;;;2.67;1.42;;;16.10;99.90;;;;;;5023466;28;20037;-80
2022/09/29 08:36:05;;;;;;;2.65;1.42;;;16.20;99.90;;;;;;5020886;28;20032;-81
2022/09/29 08:38:31;;;;;;;2.42;1.20;;;16.60;99.90;;;;;;5021439;28;20065;-79
2022/09/29 08:41:03;;;;;;;3.25;1.58;;;17.00;99.90;;;;;;5021533;28;20151;-79
2022/09/29 08:43:38;;;;;;;1.30;1.10;;;17.20;99.90;;;;;;5019623;28;20037;-82
2022/09/29 08:46:13;;;;;;;;;;;17.20;99.90;;;;;;5019293;28;20064;-81
2022/09/29 08:48:42;;;;;;;0.75;0.68;;;17.00;99.90;;;;;;5017182;28;19914;-80
2022/09/29 08:51:18;;;;;;;3.25;0.90;;;16.70;99.90;;;;;;5019388;28;20176;-81
2022/09/29 08:53:48;;;;;;;2.13;1.08;;;16.60;99.90;;;;;;5018597;28;20070;-81
2022/09/29 08:56:16;;;;;;;1.73;1.05;;;16.80;99.90;;;;;;5034573;28;20030;-80
2022/09/29 08:58:42;;;;;;;1.92;1.10;;;16.90;99.90;;;;;;5024888;28;20029;-78
2022/09/29 09:01:14;;;;;;;2.30;0.80;;;16.80;99.90;;;;;;5027865;28;20034;-79
2022/09/29 09:03:52;;;;;;;2.35;1.10;;;16.90;99.90;;;;;;5026187;28;20033;-80
2022/09/29 09:06:58;;;;;;;2.08;1.15;;;16.70;99.90;;;;;;5027609;28;20029;-78
2022/09/29 09:09:37;;;;;;;3.35;1.38;;;16.60;99.90;;;;;;4998231;28;20073;-78
2022/09/29 09:12:12;;;;;;;2.50;1.63;;;16.40;99.90;;;;;;5028145;28;20130;-80
2022/09/29 09:14:40;;;;;;;2.13;1.10;;;16.30;99.90;;;;;;5025065;28;20037;-77
2022/09/29 09:17:48;;;;;;;1.38;0.90;;;16.50;99.90;;;;;;5032474;28;20029;-80
2022/09/29 09:20:27;;;;;;;3.50;1.30;;;17.40;99.90;;;;;;5051384;28;20034;-76
2022/09/29 09:22:59;;;;;;;1.48;1.05;;;18.90;99.90;;;;;;5051228;28;20029;-78
2022/09/29 09:25:40;;;;;;;1.40;0.95;;;19.50;99.40;;;;;;5051671;28;20037;-78
2022/09/29 09:28:23;;;;;;;1.58;1.02;;;19.50;99.10;;;;;;5049547;28;20029;-78
2022/09/29 09:31:14;;;;;;;4.63;1.33;;;19.30;99.00;;;;;;5039704;28;20034;-81
2022/09/29 09:33:46;;;;;;;1.52;1.00;;;18.80;99.80;;;;;;5039015;28;20477;-80
2022/09/29 09:36:34;;;;;;;2.13;1.10;;;18.50;99.90;;;;;;5038987;28;20029;-79
2022/09/29 09:39:13;;;;;;;1.95;1.40;;;18.40;99.90;;;;;;5042448;28;20025;-80
2022/09/29 09:41:40;;;;;;;2.28;1.40;;;18.20;99.90;;;;;;5039675;28;20481;-80
2022/09/29 09:44:32;;;;;;;4.85;1.45;;;18.00;99.90;;;;;;5035777;28;20029;-81
2022/09/29 09:47:04;;;;;;;6.50;2.28;;;17.80;99.90;;;;;;5037114;28;20091;-83
2022/09/29 09:49:38;;;;;;;4.32;1.40;;;17.50;99.90;;;;;;5041350;28;20033;-81
2022/09/29 09:52:22;;;;;;;1.52;1.23;;;17.50;99.90;;;;;;5039072;28;20045;-83
2022/09/29 09:54:53;;;;;;;2.22;1.10;;;18.10;99.90;;;;;;5023641;28;20036;-82
2022/09/29 09:57:47;;;;;;;1.65;1.10;;;18.70;99.90;;;;;;5018984;28;20076;-80
2022/09/29 10:00:21;;;;;;;1.58;1.30;;;20.00;98.30;;;;;;5017931;28;20098;-80
2022/09/29 10:02:50;;;;;;;2.05;1.38;;;20.50;97.20;;;;;;5017817;28;20037;-80
2022/09/29 10:05:18;;;;;;;2.65;1.27;;;20.90;96.60;;;;;;5016247;28;20101;-80
2022/09/29 10:07:47;;;;;;;2.00;1.10;;;20.70;96.20;;;;;;5017465;28;20137;-79
2022/09/29 10:10:17;;;;;;;2.15;1.27;;;20.60;95.80;;;;;;5018327;28;20054;-80
2022/09/29 10:12:44;;;;;;;3.13;1.17;;;20.40;95.80;;;;;;5034681;28;20033;-79
2022/09/29 10:15:28;;;;;;;3.30;1.38;;;20.20;96.00;;;;;;5018431;28;20084;-81
2022/09/29 10:18:16;;;;;;;1.98;1.17;;;19.80;96.40;;;;;;5017174;28;20030;-82
2022/09/29 10:20:43;;;;;;;1.83;1.13;;;19.20;96.50;;;;;;5018776;28;20408;-80
2022/09/29 10:23:31;;;;;;;2.22;1.08;;;19.00;96.80;;;;;;5018671;28;20030;-79
2022/09/29 10:26:24;;;;;;;2.70;0.95;;;19.30;96.80;;;;;;5016955;28;20030;-79
2022/09/29 10:28:53;;;;;;;1.27;0.90;;;20.50;95.80;;;;;;5016676;28;20117;-82
2022/09/29 10:31:31;;;;;;;2.10;1.00;;;21.50;94.40;;;;;;5020009;28;20072;-80
2022/09/29 10:34:09;;;;;;;1.67;0.98;;;21.80;93.50;;;;;;5022825;28;20045;-80
2022/09/29 10:36:52;;;;;;;1.23;0.80;;;22.70;92.20;;;;;;5020854;28;20033;-81
2022/09/29 10:39:41;;;;;;;1.50;0.90;;;24.70;89.20;;;;;;5018400;28;20041;-77
2022/09/29 10:42:33;;;;;;;2.25;1.00;;;27.10;82.00;;;;;;5033200;28;20026;-78
2022/09/29 10:45:20;;;;;;;2.20;1.13;;;29.00;74.30;;;;;;5032794;28;20030;-81
2022/09/29 10:47:59;;;;;;;1.75;0.80;;;29.80;69.40;;;;;;5016950;28;20049;-77
2022/09/29 10:50:30;;;;;;;1.08;0.90;;;30.00;67.60;;;;;;5017732;28;20497;-80
2022/09/29 10:52:59;;;;;;;1.73;1.05;;;30.90;65.00;;;;;;5021283;28;20033;-79
2022/09/29 10:55:29;;;;;;;2.05;1.13;;;31.50;62.90;;;;;;5023000;28;20115;-78
2022/09/29 10:57:57;;;;;;;2.35;0.88;;;31.50;61.90;;;;;;5038334;28;20041;-78
2022/09/29 11:00:30;;;;;;;1.55;0.90;;;31.80;60.30;;;;;;5020665;28;20018;-81
2022/09/29 11:03:26;;;;;;;1.42;0.90;;;31.70;59.20;;;;;;5017884;28;20088;-81
2022/09/29 11:05:57;;;;;;;1.67;1.00;;;31.20;58.80;;;;;;5014523;28;20042;-79
2022/09/29 11:08:26;;;;;;;1.10;0.80;;;31.30;58.10;;;;;;5032067;28;20108;-79
2022/09/29 11:11:21;;;;;;;2.10;0.95;;;32.10;57.80;;;;;;5016507;28;20022;-80
2022/09/29 11:13:47;;;;;;;2.15;0.90;;;31.80;56.90;;;;;;5024347;28;20212;-79
2022/09/29 11:16:18;;;;;;;1.90;1.15;;;31.70;56.30;;;;;;5024714;28;20108;-80
2022/09/29 11:18:47;;;;;;;3.42;1.13;;;31.90;56.00;;;;;;5031472;28;20030;-81
2022/09/29 11:21:19;;;;;;;0.85;0.85;;;31.80;55.50;;;;;;5028145;28;20509;-79
2022/09/29 11:24:23;;;;;;;1.45;0.80;;;32.10;55.00;;;;;;5022694;28;20125;-81
2022/09/29 11:26:49;;;;;;;1.48;0.70;;;31.50;54.70;;;;;;5010531;28;20498;-80
2022/09/29 11:29:35;;;;;;;1.65;0.85;;;31.50;53.20;;;;;;5030300;28;20022;-80
2022/09/29 11:32:10;;;;;;;0.70;0.70;;;31.80;52.80;;;;;;5024345;28;20041;-81
2022/09/29 11:34:48;;;;;;;0.88;0.57;;;31.90;53.00;;;;;;5027379;28;20175;-78
2022/09/29 11:37:22;;;;;;;1.55;0.90;;;32.90;52.30;;;;;;5031521;28;20033;-81
2022/09/29 11:39:56;;;;;;;2.33;1.25;;;33.30;50.90;;;;;;5032161;28;20033;-80
2022/09/29 11:42:41;;;;;;;;;;;33.20;50.80;;;;;;5049010;28;20043;-80
2022/09/29 11:45:14;;;;;;;5.53;1.00;;;33.20;51.20;;;;;;5002508;28;19914;-81
2022/09/29 11:48:22;;;;;;;1.15;0.90;;;32.00;52.20;;;;;;5014151;28;20154;-82
2022/09/29 11:50:57;;;;;;;1.80;1.00;;;31.60;52.90;;;;;;5042117;28;20026;-80
2022/09/29 11:53:39;;;;;;;2.70;1.15;;;30.80;53.70;;;;;;5042315;28;20509;-82
2022/09/29 11:56:11;;;;;;;2.17;1.17;;;30.00;54.40;;;;;;5035785;28;20534;-82
2022/09/29 11:58:50;;;;;;;4.03;1.10;;;29.40;55.50;;;;;;5021371;28;20025;-81
2022/09/29 12:01:23;;;;;;;2.33;1.10;;;29.60;55.00;;;;;;5022361;28;20097;-81
2022/09/29 12:04:14;;;;;;;2.75;1.10;;;28.50;55.40;;;;;;5023784;28;20029;-81
2022/09/29 12:06:53;;;;;;;5.30;1.33;;;29.00;55.60;;;;;;5022300;28;20041;-82
2022/09/29 12:09:32;;;;;;;3.53;1.15;;;29.70;54.90;;;;;;5023769;28;20490;-79
2022/09/29 12:12:39;;;;;;;2.03;1.00;;;29.80;54.10;;;;;;5025394;28;20041;-82
2022/09/29 12:15:32;;;;;;;1.73;1.00;;;29.30;54.90;;;;;;4995990;28;20125;-80
2022/09/29 12:18:02;;;;;;;3.97;1.15;;;28.70;55.50;;;;;;5007795;28;20034;-79
2022/09/29 12:20:33;;;;;;;4.97;1.10;;;27.40;56.90;;;;;;5015296;28;20042;-80
2022/09/29 12:23:04;;;;;;;5.32;1.77;;;26.40;58.10;;;;;;5015738;28;20038;-79
2022/09/29 12:25:35;;;;;;;2.40;1.10;;;25.80;59.00;;;;;;5016570;28;20034;-80
2022/09/29 12:28:12;;;;;;;5.60;1.30;;;25.10;60.30;;;;;;5015412;28;20026;-79
2022/09/29 12:30:53;;;;;;;2.58;1.40;;;25.00;60.90;;;;;;5013995;28;20053;-79
2022/09/29 12:33:22;;;;;;;4.50;1.25;;;26.10;60.10;;;;;;5010579;28;20089;-81
2022/09/29 12:35:53;;;;;;;2.55;1.30;;;27.20;59.00;;;;;;5030363;28;20474;-79
2022/09/29 12:38:38;;;;;;;2.60;1.13;;;28.30;57.20;;;;;;5022997;28;20057;-83
2022/09/29 12:41:15;;;;;;;4.32;1.23;;;28.50;56.50;;;;;;5019742;28;20034;-82
2022/09/29 12:43:52;;;;;;;1.65;0.95;;;29.00;56.10;;;;;;5017374;28;20037;-82
2022/09/29 12:46:34;;;;;;;4.30;1.10;;;29.00;55.80;;;;;;5016862;28;20026;-84
2022/09/29 12:49:19;;;;;;;2.38;1.30;;;29.00;55.90;;;;;;5016384;28;20557;-83
2022/09/29 12:51:49;;;;;;;1.83;0.80;;;28.80;56.10;;;;;;5017159;28;20625;-81
2022/09/29 12:54:37;;;;;;;1.98;1.10;;;29.20;55.10;;;;;;5017592;28;20045;-82
2022/09/29 12:57:17;;;;;;;2.88;0.70;;;29.70;54.60;;;;;;5017381;28;20091;-82
2022/09/29 12:59:58;;;;;;;2.28;1.00;;;30.50;54.10;;;;;;5018085;28;20026;-81
2022/09/29 13:02:42;;;;;;;1.13;0.70;;;30.40;53.60;;;;;;5020236;28;20028;-81
2022/09/29 13:05:23;;;;;;;1.87;1.20;;;29.70;54.20;;;;;;5027678;28;20032;-81
2022/09/29 13:08:10;;;;;;;3.92;0.93;;;29.60;54.40;;;;;;5040214;28;20480;-80
2022/09/29 13:10:58;;;;;;;3.25;1.08;;;29.10;54.70;;;;;;5045145;28;20037;-81
2022/09/29 13:14:00;;;;;;;1.45;0.82;;;28.30;55.50;;;;;;5032629;28;20037;-82
2022/09/29 13:16:56;;;;;;;3.17;0.88;;;27.70;55.60;;;;;;5014902;28;20426;-81
2022/09/29 13:19:34;;;;;;;2.00;1.17;;;26.70;57.30;;;;;;5003178;28;20026;-81